Time;durP1;ratioP1;P1;durP2;ratioP2;P2;SDS_P1;SDS_P2;PMS_P1;PMS_P2;Temp;Humidity;BMP_temperature;BMP_pressure;BME280_temperature;BME280_humidity;BME280_pressure;Samples;Min_cycle;Max_cycle;Signal;HPM_P1;HPM_P2
2023/08/07 00:00:43;;;;;;;6.65;2.70;;;15.70;99.90;;;;;;5061178;28;20040;-80
2023/08/07 00:03:09;;;;;;;7.57;2.83;;;15.70;99.90;;;;;;5070515;28;20032;-80
2023/08/07 00:05:34;;;;;;;7.82;2.45;;;15.70;99.90;;;;;;5080187;28;20043;-81
2023/08/07 00:08:00;;;;;;;8.20;2.70;;;15.70;99.90;;;;;;5079951;28;20097;-81
2023/08/07 00:10:26;;;;;;;8.57;2.55;;;15.70;99.90;;;;;;5060513;28;20029;-81
2023/08/07 00:12:52;;;;;;;7.30;2.35;;;15.70;99.90;;;;;;5064087;28;20032;-81
2023/08/07 00:15:18;;;;;;;8.80;2.58;;;15.70;99.90;;;;;;5081589;28;20024;-80
2023/08/07 00:17:44;;;;;;;7.78;2.38;;;15.70;99.90;;;;;;5060258;28;20298;-80
2023/08/07 00:20:10;;;;;;;7.50;2.40;;;15.70;99.90;;;;;;5063023;28;20035;-81
2023/08/07 00:22:35;;;;;;;8.07;2.40;;;15.70;99.90;;;;;;5065295;28;20183;-81
2023/08/07 00:25:01;;;;;;;7.63;2.55;;;15.70;99.90;;;;;;5043922;28;20092;-81
2023/08/07 00:27:27;;;;;;;8.20;2.47;;;15.70;99.90;;;;;;5065199;28;20060;-81
2023/08/07 00:29:52;;;;;;;9.98;2.72;;;15.70;99.90;;;;;;5078162;28;20059;-81
2023/08/07 00:32:18;;;;;;;8.68;2.65;;;15.70;99.90;;;;;;5064499;28;20064;-81
2023/08/07 00:34:44;;;;;;;8.52;2.65;;;15.70;99.90;;;;;;5048545;28;20116;-81
2023/08/07 00:37:10;;;;;;;7.15;2.45;;;15.70;99.90;;;;;;5083078;28;20109;-81
2023/08/07 00:39:35;;;;;;;8.32;2.50;;;15.70;99.90;;;;;;5066745;28;21861;-81
2023/08/07 00:42:01;;;;;;;7.90;2.45;;;15.70;99.90;;;;;;5069143;28;20036;-80
2023/08/07 00:44:27;;;;;;;12.40;3.13;;;15.70;99.90;;;;;;5065216;28;20043;-80
2023/08/07 00:46:54;;;;;;;6.85;2.30;;;15.60;99.90;;;;;;5047890;28;20086;-81
2023/08/07 00:49:20;;;;;;;10.45;2.88;;;15.60;99.90;;;;;;5044052;28;20028;-80
2023/08/07 00:51:47;;;;;;;11.50;2.70;;;15.60;99.90;;;;;;5067687;28;20035;-81
2023/08/07 00:54:15;;;;;;;8.23;2.40;;;15.60;99.90;;;;;;5082608;28;20047;-80
2023/08/07 00:56:41;;;;;;;7.65;2.22;;;15.60;99.90;;;;;;5048557;28;20066;-81
2023/08/07 00:59:08;;;;;;;8.82;2.50;;;15.50;99.90;;;;;;5066238;28;20028;-80
2023/08/07 01:01:34;;;;;;;6.25;2.20;;;15.60;99.90;;;;;;5067544;28;20154;-80
2023/08/07 01:04:00;;;;;;;7.13;2.40;;;15.60;99.90;;;;;;5051412;28;20313;-80
2023/08/07 01:06:25;;;;;;;6.63;2.42;;;15.50;99.90;;;;;;5068787;28;20046;-80
2023/08/07 01:08:51;;;;;;;5.93;2.00;;;15.50;99.90;;;;;;5065812;28;20028;-80
2023/08/07 01:11:52;;;;;;;7.18;2.35;;;15.50;99.90;;;;;;5061087;28;20192;-80
2023/08/07 01:14:42;;;;;;;8.40;2.20;;;15.50;99.90;;;;;;5029167;28;20040;-80
2023/08/07 01:17:13;;;;;;;6.57;2.10;;;15.50;99.90;;;;;;5083337;28;20056;-80
2023/08/07 01:19:40;;;;;;;7.07;2.05;;;15.40;99.90;;;;;;5081408;28;20274;-80
2023/08/07 01:22:07;;;;;;;7.60;2.13;;;15.40;99.90;;;;;;5066563;28;20036;-80
2023/08/07 01:24:33;;;;;;;7.93;2.20;;;15.40;99.90;;;;;;5080882;28;20033;-80
2023/08/07 01:27:19;;;;;;;7.60;2.35;;;15.40;99.90;;;;;;5066015;28;20042;-80
2023/08/07 01:30:19;;;;;;;7.70;2.10;;;15.40;99.90;;;;;;5075130;28;20024;-80
2023/08/07 01:32:54;;;;;;;5.38;2.00;;;15.30;99.90;;;;;;5080486;28;20095;-80
2023/08/07 01:35:26;;;;;;;6.95;2.17;;;15.30;99.90;;;;;;5083896;28;20059;-80
2023/08/07 01:37:55;;;;;;;8.05;2.28;;;15.30;99.90;;;;;;5084045;28;20036;-80
2023/08/07 01:40:22;;;;;;;5.95;2.00;;;15.30;99.90;;;;;;5065156;28;20082;-80
2023/08/07 01:42:47;;;;;;;7.38;2.10;;;15.30;99.90;;;;;;5064334;28;20051;-80
2023/08/07 01:45:13;;;;;;;7.03;2.40;;;15.30;99.90;;;;;;5051237;28;20289;-80
2023/08/07 01:47:39;;;;;;;6.25;2.15;;;15.20;99.90;;;;;;5066496;28;20121;-79
2023/08/07 01:50:06;;;;;;;11.27;2.53;;;15.20;99.90;;;;;;5057123;28;20156;-79
2023/08/07 01:52:32;;;;;;;7.65;2.40;;;15.20;99.90;;;;;;5077060;28;20438;-79
2023/08/07 01:54:58;;;;;;;7.28;2.05;;;15.20;99.90;;;;;;5065231;28;20087;-79
2023/08/07 01:57:23;;;;;;;7.93;2.30;;;15.10;99.90;;;;;;5083319;28;20296;-79
2023/08/07 01:59:49;;;;;;;7.00;2.40;;;15.10;99.90;;;;;;5056296;28;20095;-80
2023/08/07 02:02:15;;;;;;;6.65;2.20;;;15.10;99.90;;;;;;5062439;28;20458;-80
2023/08/07 02:04:41;;;;;;;6.82;2.30;;;15.10;99.90;;;;;;5047563;28;20099;-80
2023/08/07 02:07:06;;;;;;;6.88;2.30;;;15.10;99.90;;;;;;5083174;28;20039;-80
2023/08/07 02:09:32;;;;;;;7.65;2.40;;;15.10;99.90;;;;;;5050349;28;20165;-80
2023/08/07 02:11:58;;;;;;;7.30;2.13;;;15.10;99.90;;;;;;5080661;28;20075;-80
2023/08/07 02:14:23;;;;;;;7.38;2.22;;;15.10;99.90;;;;;;5066154;28;20035;-80
2023/08/07 02:16:49;;;;;;;7.35;2.17;;;15.10;99.90;;;;;;5064573;28;20052;-80
2023/08/07 02:19:14;;;;;;;8.02;2.30;;;15.00;99.90;;;;;;5083216;28;20024;-80
2023/08/07 02:21:40;;;;;;;7.95;2.55;;;15.00;99.90;;;;;;5050286;28;20031;-80
2023/08/07 02:24:06;;;;;;;8.13;2.38;;;15.00;99.90;;;;;;5080307;28;20120;-79
2023/08/07 02:26:32;;;;;;;9.88;2.70;;;15.00;99.90;;;;;;5066143;28;20035;-80
2023/08/07 02:28:57;;;;;;;9.23;2.58;;;15.00;99.90;;;;;;5049265;28;20190;-79
2023/08/07 02:31:23;;;;;;;8.52;2.58;;;14.90;99.90;;;;;;5064699;28;20060;-80
2023/08/07 02:33:49;;;;;;;10.65;2.55;;;14.90;99.90;;;;;;5080971;28;20039;-80
2023/08/07 02:36:14;;;;;;;10.75;2.70;;;14.90;99.90;;;;;;5063534;28;20062;-80
2023/08/07 02:38:40;;;;;;;9.38;2.80;;;14.90;99.90;;;;;;5049021;28;20048;-80
2023/08/07 02:41:06;;;;;;;7.80;2.88;;;14.90;99.90;;;;;;5050155;28;20085;-79
2023/08/07 02:43:33;;;;;;;9.82;2.60;;;14.90;99.90;;;;;;5048217;28;20099;-79
2023/08/07 02:45:58;;;;;;;8.15;2.70;;;14.90;99.90;;;;;;5081990;28;20036;-80
2023/08/07 02:48:24;;;;;;;9.35;2.92;;;14.90;99.90;;;;;;5086802;27;20042;-79
2023/08/07 02:50:51;;;;;;;10.20;2.70;;;14.90;99.90;;;;;;5065531;28;20061;-80
2023/08/07 02:53:17;;;;;;;10.52;2.60;;;14.90;99.90;;;;;;5066267;28;20141;-79
2023/08/07 02:55:44;;;;;;;8.88;2.75;;;14.90;99.90;;;;;;5060661;28;20198;-79
2023/08/07 02:58:09;;;;;;;11.68;3.10;;;14.90;99.90;;;;;;5048618;28;20257;-79
2023/08/07 03:00:35;;;;;;;9.88;2.85;;;14.90;99.90;;;;;;5064215;28;20039;-79
2023/08/07 03:03:01;;;;;;;10.00;2.78;;;15.00;99.90;;;;;;5066924;28;20149;-79
2023/08/07 03:05:26;;;;;;;13.65;2.97;;;15.00;99.90;;;;;;5072303;28;20255;-78
2023/08/07 03:07:52;;;;;;;11.75;3.03;;;15.00;99.90;;;;;;5080110;28;20028;-79
2023/08/07 03:10:19;;;;;;;11.70;3.05;;;15.10;99.90;;;;;;5065983;28;20036;-79
2023/08/07 03:12:44;;;;;;;11.13;2.90;;;15.10;99.90;;;;;;5061230;28;20020;-79
2023/08/07 03:15:10;;;;;;;10.15;2.60;;;15.10;99.90;;;;;;5064678;28;20032;-79
2023/08/07 03:17:36;;;;;;;12.30;2.80;;;15.10;99.90;;;;;;5081524;28;20036;-79
2023/08/07 03:20:03;;;;;;;10.70;3.03;;;15.10;99.90;;;;;;5080979;28;20036;-79
2023/08/07 03:22:29;;;;;;;10.60;2.60;;;15.10;99.90;;;;;;5082414;28;20028;-79
2023/08/07 03:24:55;;;;;;;9.95;2.78;;;15.00;99.90;;;;;;5065832;28;20058;-79
2023/08/07 03:27:21;;;;;;;10.63;2.88;;;15.00;99.90;;;;;;5077006;28;20028;-79
2023/08/07 03:29:46;;;;;;;8.32;2.58;;;15.00;99.90;;;;;;5079870;28;20051;-79
2023/08/07 03:32:12;;;;;;;10.23;2.67;;;15.00;99.90;;;;;;5063123;28;20263;-79
2023/08/07 03:34:38;;;;;;;9.80;2.47;;;15.00;99.90;;;;;;5078428;28;20055;-79
2023/08/07 03:37:04;;;;;;;10.50;2.78;;;15.00;99.90;;;;;;5076571;28;20028;-81
2023/08/07 03:39:29;;;;;;;9.57;2.40;;;15.00;99.90;;;;;;5104266;27;20028;-81
2023/08/07 03:41:55;;;;;;;8.63;2.35;;;15.00;99.90;;;;;;5073899;28;20048;-81
2023/08/07 03:44:21;;;;;;;9.52;2.40;;;15.00;99.90;;;;;;5065748;28;20303;-82
2023/08/07 03:46:47;;;;;;;7.90;2.30;;;14.90;99.90;;;;;;5074978;28;20043;-81
2023/08/07 03:49:12;;;;;;;9.73;2.70;;;14.90;99.90;;;;;;5078132;28;20031;-82
2023/08/07 03:51:38;;;;;;;8.45;2.50;;;14.90;99.90;;;;;;5058683;28;20031;-81
2023/08/07 03:54:04;;;;;;;6.60;2.17;;;14.90;99.90;;;;;;5061366;28;20198;-81
2023/08/07 03:56:36;;;;;;;8.18;2.20;;;14.90;99.90;;;;;;5042538;28;20035;-81
2023/08/07 03:59:04;;;;;;;10.43;2.57;;;14.90;99.90;;;;;;5061165;28;20116;-82
2023/08/07 04:01:30;;;;;;;9.48;2.25;;;14.90;99.90;;;;;;5061451;28;20141;-81
2023/08/07 04:03:55;;;;;;;7.28;2.20;;;14.90;99.90;;;;;;5059277;28;20391;-80
2023/08/07 04:06:21;;;;;;;7.93;2.10;;;14.90;99.90;;;;;;5042856;28;20071;-80
2023/08/07 04:08:47;;;;;;;8.88;2.30;;;14.90;99.90;;;;;;5043496;28;20075;-80
2023/08/07 04:11:13;;;;;;;10.50;2.45;;;14.90;99.90;;;;;;5080200;28;20032;-80
2023/08/07 04:13:39;;;;;;;8.18;2.40;;;14.90;99.90;;;;;;5081711;28;20028;-80
2023/08/07 04:16:05;;;;;;;10.65;2.63;;;14.80;99.90;;;;;;5067968;28;20039;-80
2023/08/07 04:18:31;;;;;;;8.90;3.00;;;14.80;99.90;;;;;;5086263;28;20100;-80
2023/08/07 04:20:58;;;;;;;8.93;2.20;;;14.80;99.90;;;;;;5094645;27;20043;-80
2023/08/07 04:23:24;;;;;;;7.53;2.42;;;14.80;99.90;;;;;;5067423;28;20238;-80
2023/08/07 04:25:51;;;;;;;13.00;3.45;;;14.80;99.90;;;;;;5099445;27;20233;-80
2023/08/07 04:28:17;;;;;;;12.27;3.55;;;14.80;99.90;;;;;;5067199;28;20035;-80
2023/08/07 04:30:44;;;;;;;12.57;3.33;;;14.80;99.90;;;;;;5102589;27;20066;-80
2023/08/07 04:33:10;;;;;;;12.15;3.10;;;14.80;99.90;;;;;;5048908;28;20122;-81
2023/08/07 04:35:36;;;;;;;12.23;3.20;;;14.80;99.90;;;;;;5084007;28;20079;-80
2023/08/07 04:38:02;;;;;;;10.13;2.80;;;14.80;99.90;;;;;;5067215;28;20289;-80
2023/08/07 04:40:29;;;;;;;11.10;2.88;;;14.80;99.90;;;;;;5084601;28;20089;-81
2023/08/07 04:42:56;;;;;;;12.13;3.03;;;14.80;99.90;;;;;;5115964;27;20068;-80
2023/08/07 04:45:21;;;;;;;13.70;3.40;;;14.90;99.90;;;;;;5080233;28;20093;-80
2023/08/07 04:47:47;;;;;;;12.18;3.38;;;14.90;99.90;;;;;;5060587;28;20032;-80
2023/08/07 04:50:13;;;;;;;12.48;3.00;;;14.90;99.90;;;;;;5062022;28;20096;-80
2023/08/07 04:52:39;;;;;;;13.75;2.75;;;14.90;99.90;;;;;;5045009;28;20096;-80
2023/08/07 04:55:05;;;;;;;13.25;3.45;;;14.90;99.90;;;;;;5066575;28;20034;-80
2023/08/07 04:57:30;;;;;;;11.38;3.25;;;14.90;99.90;;;;;;5049913;28;20122;-81
2023/08/07 04:59:56;;;;;;;11.13;2.75;;;15.00;99.90;;;;;;5077878;28;20027;-80
2023/08/07 05:02:22;;;;;;;13.95;3.78;;;14.90;99.90;;;;;;5061461;28;20181;-81
2023/08/07 05:04:48;;;;;;;15.05;3.78;;;14.90;99.90;;;;;;5076919;28;20031;-80
2023/08/07 05:07:14;;;;;;;14.45;3.65;;;14.90;99.90;;;;;;5078363;28;20043;-80
2023/08/07 05:09:39;;;;;;;13.05;2.92;;;14.90;99.90;;;;;;5063863;28;20017;-81
2023/08/07 05:12:06;;;;;;;13.80;3.05;;;14.80;99.90;;;;;;5056403;28;20317;-81
2023/08/07 05:14:32;;;;;;;12.75;3.30;;;14.90;99.90;;;;;;5046691;28;20035;-80
2023/08/07 05:16:59;;;;;;;15.75;3.55;;;15.00;99.90;;;;;;5059098;28;20031;-81
2023/08/07 05:19:25;;;;;;;14.50;3.00;;;15.00;99.90;;;;;;5047350;28;20188;-80
2023/08/07 05:21:51;;;;;;;13.55;3.22;;;15.10;99.90;;;;;;5072556;28;20135;-80
2023/08/07 05:24:18;;;;;;;12.57;3.38;;;15.10;99.90;;;;;;5050737;28;20036;-80
2023/08/07 05:26:44;;;;;;;14.93;3.17;;;15.20;99.90;;;;;;5066459;28;20071;-80
2023/08/07 05:29:10;;;;;;;12.38;3.40;;;15.20;99.90;;;;;;5064647;28;20093;-80
2023/08/07 05:31:36;;;;;;;12.15;3.60;;;15.20;99.90;;;;;;5067505;28;20032;-80
2023/08/07 05:34:02;;;;;;;15.88;3.47;;;15.20;99.90;;;;;;5039841;28;20044;-80
2023/08/07 05:36:28;;;;;;;13.82;3.88;;;15.20;99.90;;;;;;5023106;28;20050;-80
2023/08/07 05:38:54;;;;;;;14.23;3.78;;;15.20;99.90;;;;;;5058434;28;20052;-80
2023/08/07 05:41:20;;;;;;;14.75;3.88;;;15.20;99.90;;;;;;5052743;28;20119;-79
2023/08/07 05:43:46;;;;;;;17.77;3.83;;;15.20;99.90;;;;;;5047078;28;20036;-79
2023/08/07 05:46:11;;;;;;;15.90;4.10;;;15.20;99.90;;;;;;5068624;28;20136;-79
2023/08/07 05:48:37;;;;;;;11.55;3.65;;;15.20;99.90;;;;;;5054594;28;20087;-79
2023/08/07 05:51:03;;;;;;;15.30;4.45;;;15.30;99.90;;;;;;5056160;28;20096;-79
2023/08/07 05:53:29;;;;;;;13.18;3.70;;;15.40;99.90;;;;;;5038696;28;20555;-79
2023/08/07 05:55:55;;;;;;;13.13;3.72;;;15.50;99.90;;;;;;5055981;28;20050;-79
2023/08/07 05:58:21;;;;;;;14.40;3.90;;;15.60;99.90;;;;;;5084026;28;20072;-79
2023/08/07 06:00:47;;;;;;;13.27;3.50;;;15.60;99.90;;;;;;5035013;28;20243;-78
2023/08/07 06:03:13;;;;;;;15.18;3.63;;;15.60;99.90;;;;;;5055734;28;20059;-79
2023/08/07 06:05:39;;;;;;;10.60;3.38;;;15.60;99.90;;;;;;5072475;28;20386;-79
2023/08/07 06:08:04;;;;;;;15.82;3.85;;;15.50;99.90;;;;;;5053614;28;20128;-79
2023/08/07 06:10:30;;;;;;;15.38;3.72;;;15.50;99.90;;;;;;5053450;28;20139;-79
2023/08/07 06:12:56;;;;;;;12.93;3.42;;;15.40;99.90;;;;;;5070800;28;20437;-79
2023/08/07 06:15:22;;;;;;;13.25;3.70;;;15.40;99.90;;;;;;5072377;28;20085;-79
2023/08/07 06:17:48;;;;;;;13.57;3.70;;;15.40;99.90;;;;;;5046587;28;20042;-79
2023/08/07 06:20:15;;;;;;;15.85;4.35;;;15.40;99.90;;;;;;5050200;28;20169;-79
2023/08/07 06:22:41;;;;;;;15.07;3.80;;;15.40;99.90;;;;;;5047710;28;20044;-79
2023/08/07 06:25:08;;;;;;;15.18;3.67;;;15.50;99.90;;;;;;5046272;28;20042;-79
2023/08/07 06:27:34;;;;;;;14.30;3.03;;;15.60;99.90;;;;;;5033720;28;20039;-78
2023/08/07 06:29:59;;;;;;;12.30;2.85;;;15.70;99.90;;;;;;5060245;28;20565;-79
2023/08/07 06:32:26;;;;;;;12.48;2.85;;;15.70;99.90;;;;;;5029826;28;20047;-79
2023/08/07 06:34:52;;;;;;;13.07;2.92;;;15.70;99.90;;;;;;5065421;28;20036;-79
2023/08/07 06:37:18;;;;;;;12.18;2.80;;;15.80;99.90;;;;;;5028993;28;20048;-79
2023/08/07 06:39:46;;;;;;;11.45;2.88;;;15.70;99.90;;;;;;5042499;28;20131;-79
2023/08/07 06:42:12;;;;;;;15.88;3.78;;;15.70;99.90;;;;;;5043730;28;20070;-79
2023/08/07 06:44:37;;;;;;;12.93;3.00;;;15.80;99.90;;;;;;5063247;28;20125;-79
2023/08/07 06:47:03;;;;;;;12.27;3.30;;;16.00;99.90;;;;;;5029721;28;20040;-80
2023/08/07 06:49:31;;;;;;;10.60;2.92;;;16.10;99.90;;;;;;5064424;28;20044;-80
2023/08/07 06:51:57;;;;;;;9.93;2.97;;;15.90;99.90;;;;;;5031013;28;20091;-78
2023/08/07 06:54:23;;;;;;;11.45;2.90;;;15.60;99.90;;;;;;5047156;28;20146;-80
2023/08/07 06:56:49;;;;;;;12.23;3.15;;;15.40;99.90;;;;;;5040356;28;20531;-80
2023/08/07 06:59:15;;;;;;;12.88;3.25;;;15.30;99.90;;;;;;5045954;28;20043;-80
2023/08/07 07:01:41;;;;;;;13.48;3.20;;;15.10;99.90;;;;;;5046599;28;20052;-80
2023/08/07 07:04:07;;;;;;;12.20;3.20;;;15.10;99.90;;;;;;5021806;28;20589;-80
2023/08/07 07:06:33;;;;;;;13.90;3.28;;;15.10;99.90;;;;;;5046646;28;20032;-80
2023/08/07 07:08:59;;;;;;;16.38;3.80;;;15.10;99.90;;;;;;5045438;28;20070;-80
2023/08/07 07:11:25;;;;;;;13.23;3.15;;;15.10;99.90;;;;;;5046812;28;20056;-80
2023/08/07 07:13:52;;;;;;;15.70;3.30;;;15.10;99.90;;;;;;5045144;28;20449;-80
2023/08/07 07:16:23;;;;;;;15.68;3.42;;;15.20;99.90;;;;;;5057838;28;20051;-79
2023/08/07 07:18:50;;;;;;;12.85;3.25;;;15.20;99.90;;;;;;5047094;28;20056;-80
2023/08/07 07:21:16;;;;;;;13.55;3.70;;;15.30;99.90;;;;;;5048125;28;20044;-79
2023/08/07 07:23:42;;;;;;;14.27;3.92;;;15.30;99.90;;;;;;5048044;28;20043;-78
2023/08/07 07:26:08;;;;;;;11.23;2.85;;;15.20;99.90;;;;;;5042343;28;20400;-79
2023/08/07 07:28:34;;;;;;;11.95;3.03;;;15.30;99.90;;;;;;5046252;28;20476;-80
2023/08/07 07:30:59;;;;;;;11.82;3.25;;;15.30;99.90;;;;;;5057855;28;20036;-79
2023/08/07 07:33:25;;;;;;;12.52;2.78;;;15.40;99.90;;;;;;5026397;28;20032;-79
2023/08/07 07:35:51;;;;;;;14.00;2.85;;;15.40;99.90;;;;;;5028136;28;20155;-79
2023/08/07 07:38:17;;;;;;;13.05;3.20;;;15.40;99.90;;;;;;5047780;28;20046;-79
2023/08/07 07:40:43;;;;;;;13.07;3.20;;;15.60;99.90;;;;;;5039264;28;20040;-79
2023/08/07 07:43:08;;;;;;;13.10;3.53;;;15.80;99.90;;;;;;5040183;28;20036;-79
2023/08/07 07:45:35;;;;;;;11.98;3.15;;;16.00;99.90;;;;;;5045985;28;20036;-79
2023/08/07 07:48:02;;;;;;;11.75;3.00;;;16.10;99.90;;;;;;5049374;28;20055;-78
2023/08/07 07:50:28;;;;;;;13.23;2.97;;;16.10;99.90;;;;;;5066665;28;20056;-79
2023/08/07 07:52:54;;;;;;;12.07;3.00;;;16.10;99.90;;;;;;5069301;28;20135;-79
2023/08/07 07:55:20;;;;;;;11.85;3.13;;;16.10;99.90;;;;;;5049825;28;20120;-79
2023/08/07 07:57:46;;;;;;;11.82;3.20;;;16.10;99.90;;;;;;5029842;28;20325;-79
2023/08/07 08:00:13;;;;;;;11.07;3.05;;;16.20;99.90;;;;;;5062327;28;20044;-79
2023/08/07 08:02:40;;;;;;;14.43;3.30;;;16.30;99.90;;;;;;5041001;28;20118;-79
2023/08/07 08:05:07;;;;;;;11.63;3.05;;;16.20;99.90;;;;;;5067510;28;20036;-78
2023/08/07 08:07:34;;;;;;;12.65;3.78;;;16.20;99.90;;;;;;5067958;28;20512;-79
2023/08/07 08:10:00;;;;;;;10.40;2.78;;;16.10;99.90;;;;;;5066969;28;20048;-78
2023/08/07 08:12:26;;;;;;;11.15;3.08;;;16.00;99.90;;;;;;5067561;28;20035;-78
2023/08/07 08:14:52;;;;;;;14.88;3.33;;;15.90;99.90;;;;;;5034365;28;20099;-79
2023/08/07 08:17:18;;;;;;;13.88;3.00;;;15.70;99.90;;;;;;5051560;28;20475;-78
2023/08/07 08:19:43;;;;;;;11.20;3.13;;;15.60;99.90;;;;;;5052471;28;20477;-79
2023/08/07 08:22:09;;;;;;;11.30;2.90;;;15.60;99.90;;;;;;5035320;28;20490;-78
2023/08/07 08:24:35;;;;;;;11.20;3.03;;;15.60;99.90;;;;;;5069928;28;20042;-79
2023/08/07 08:27:01;;;;;;;14.05;3.30;;;15.50;99.90;;;;;;5062023;28;20044;-79
2023/08/07 08:29:28;;;;;;;10.50;2.80;;;15.50;99.90;;;;;;5029709;28;20283;-78
2023/08/07 08:31:55;;;;;;;12.02;3.22;;;15.50;99.90;;;;;;5073830;28;20055;-79
2023/08/07 08:34:21;;;;;;;13.88;2.92;;;15.70;99.90;;;;;;5026544;28;20046;-78
2023/08/07 08:36:47;;;;;;;10.45;2.80;;;15.90;99.90;;;;;;5066847;28;20076;-78
2023/08/07 08:39:13;;;;;;;14.15;3.53;;;16.30;99.90;;;;;;5058503;28;20066;-78
2023/08/07 08:41:42;;;;;;;11.20;3.20;;;16.60;99.90;;;;;;5063747;28;20040;-79
2023/08/07 08:44:11;;;;;;;13.65;3.10;;;16.60;99.90;;;;;;5047974;28;20037;-78
2023/08/07 08:46:40;;;;;;;13.07;3.00;;;16.60;99.90;;;;;;5045898;28;20040;-79
2023/08/07 08:49:07;;;;;;;9.90;2.92;;;16.50;99.90;;;;;;5045666;28;20039;-79
2023/08/07 08:51:33;;;;;;;11.27;2.72;;;16.60;99.90;;;;;;5051902;28;20062;-79
2023/08/07 08:54:01;;;;;;;13.45;3.13;;;16.70;99.90;;;;;;5050662;28;20036;-79
2023/08/07 08:56:28;;;;;;;15.90;3.22;;;16.70;99.90;;;;;;5044198;28;20036;-78
2023/08/07 08:58:54;;;;;;;10.63;2.88;;;16.80;99.90;;;;;;5044456;28;20044;-79
2023/08/07 09:01:21;;;;;;;11.48;3.03;;;17.00;99.90;;;;;;5063942;28;20040;-79
2023/08/07 09:03:47;;;;;;;11.05;2.50;;;17.10;99.90;;;;;;5065231;28;20043;-78
2023/08/07 09:06:13;;;;;;;12.68;2.80;;;17.10;99.90;;;;;;5051049;28;20117;-79
2023/08/07 09:08:42;;;;;;;13.05;2.72;;;17.20;99.90;;;;;;5051615;28;20044;-78
2023/08/07 09:11:09;;;;;;;11.05;2.97;;;17.40;99.90;;;;;;5067497;28;20385;-78
2023/08/07 09:13:38;;;;;;;11.70;3.13;;;17.50;99.90;;;;;;5067933;28;20047;-78
2023/08/07 09:16:07;;;;;;;11.27;2.78;;;17.70;99.90;;;;;;5065733;28;20048;-79
2023/08/07 09:18:33;;;;;;;11.48;2.80;;;17.70;99.90;;;;;;5068271;28;20025;-78
2023/08/07 09:21:00;;;;;;;10.95;2.90;;;17.60;99.90;;;;;;5051671;28;20130;-79
2023/08/07 09:23:26;;;;;;;13.52;3.00;;;17.60;99.90;;;;;;5063114;28;20047;-78
2023/08/07 09:26:03;;;;;;;11.52;2.50;;;17.50;99.90;;;;;;5049215;28;20028;-78
2023/08/07 09:28:30;;;;;;;9.80;2.95;;;17.60;99.90;;;;;;5028229;28;20099;-77
2023/08/07 09:30:56;;;;;;;11.27;3.22;;;17.40;99.90;;;;;;5044017;28;20101;-78
2023/08/07 09:33:29;;;;;;;12.43;2.95;;;17.10;99.90;;;;;;5046997;28;20039;-78
2023/08/07 09:36:00;;;;;;;11.52;2.58;;;17.00;99.90;;;;;;5054337;28;20552;-78
2023/08/07 09:38:34;;;;;;;8.98;2.40;;;17.10;99.90;;;;;;5046634;28;20119;-78
2023/08/07 09:41:02;;;;;;;12.82;2.90;;;17.30;99.90;;;;;;5073774;28;20047;-78
2023/08/07 09:43:28;;;;;;;10.60;2.50;;;17.40;99.90;;;;;;5062256;28;20041;-78
2023/08/07 09:46:05;;;;;;;10.27;2.55;;;17.50;99.90;;;;;;5063961;28;20457;-78
2023/08/07 09:48:33;;;;;;;13.10;2.90;;;17.50;99.90;;;;;;5061110;28;20036;-78
2023/08/07 09:51:05;;;;;;;13.82;3.03;;;17.50;99.90;;;;;;5033380;28;20036;-78
2023/08/07 09:53:31;;;;;;;9.80;2.53;;;17.40;99.90;;;;;;5063649;28;20044;-78
2023/08/07 09:55:58;;;;;;;12.48;3.00;;;17.60;99.90;;;;;;5043163;28;20048;-78
2023/08/07 09:58:24;;;;;;;10.27;2.63;;;17.80;99.90;;;;;;5057914;28;20040;-78
2023/08/07 10:00:55;;;;;;;10.38;2.70;;;18.00;99.90;;;;;;5054387;28;20036;-78
2023/08/07 10:03:22;;;;;;;10.25;2.13;;;18.00;99.90;;;;;;5055587;28;20054;-76
2023/08/07 10:05:48;;;;;;;10.15;2.72;;;17.80;99.90;;;;;;5020469;28;20044;-78
2023/08/07 10:08:14;;;;;;;11.63;2.65;;;17.70;99.90;;;;;;5046633;28;20028;-78
2023/08/07 10:10:40;;;;;;;11.00;2.67;;;17.40;99.90;;;;;;5046991;28;20186;-78
2023/08/07 10:13:06;;;;;;;10.48;2.47;;;17.30;99.90;;;;;;5047052;28;20040;-78
2023/08/07 10:15:34;;;;;;;9.80;2.40;;;17.20;99.90;;;;;;5063804;28;20405;-78
2023/08/07 10:18:00;;;;;;;11.98;2.72;;;17.00;99.90;;;;;;5059360;28;20048;-78
2023/08/07 10:20:28;;;;;;;10.95;2.60;;;17.00;99.90;;;;;;5042706;28;20037;-78
2023/08/07 10:22:59;;;;;;;10.15;2.78;;;17.00;99.90;;;;;;5046141;28;20131;-78
2023/08/07 10:25:27;;;;;;;12.80;3.13;;;17.10;99.90;;;;;;5057117;28;20116;-78
2023/08/07 10:27:55;;;;;;;10.02;2.63;;;17.50;99.90;;;;;;5039557;28;20526;-78
2023/08/07 10:30:23;;;;;;;10.32;2.63;;;17.00;99.90;;;;;;5037883;28;20040;-78
2023/08/07 10:32:53;;;;;;;14.23;2.95;;;17.60;99.90;;;;;;5053879;28;20067;-78
2023/08/07 10:35:29;;;;;;;10.80;2.67;;;17.40;99.90;;;;;;5040584;28;20056;-78
2023/08/07 10:37:55;;;;;;;13.02;3.00;;;17.30;99.90;;;;;;5058243;28;20052;-78
2023/08/07 10:40:21;;;;;;;11.15;3.22;;;17.40;99.90;;;;;;5039867;28;20055;-78
2023/08/07 10:42:51;;;;;;;12.68;3.28;;;17.30;99.90;;;;;;5041991;28;20407;-78
2023/08/07 10:45:22;;;;;;;13.02;3.45;;;17.20;99.90;;;;;;5043594;28;20056;-78
2023/08/07 10:48:09;;;;;;;14.18;3.10;;;17.20;99.90;;;;;;5042452;28;20490;-78
2023/08/07 10:50:55;;;;;;;10.02;2.47;;;17.10;99.90;;;;;;5039899;28;20466;-78
2023/08/07 10:53:21;;;;;;;11.15;2.97;;;17.00;99.90;;;;;;5043331;28;20037;-78
2023/08/07 10:55:48;;;;;;;8.82;2.42;;;17.00;99.90;;;;;;5038817;28;20045;-77
2023/08/07 10:58:30;;;;;;;9.23;2.33;;;17.20;99.90;;;;;;5055396;28;20044;-78
2023/08/07 11:01:21;;;;;;;10.25;2.50;;;17.50;99.90;;;;;;5056642;28;20383;-77
2023/08/07 11:03:55;;;;;;;8.27;2.10;;;17.60;99.90;;;;;;5040282;28;20048;-77
2023/08/07 11:06:26;;;;;;;9.82;2.63;;;17.70;99.90;;;;;;5043179;28;20032;-78
2023/08/07 11:08:52;;;;;;;13.05;2.75;;;17.70;99.90;;;;;;5061752;28;20037;-78
2023/08/07 11:11:18;;;;;;;8.63;2.28;;;17.90;99.90;;;;;;5044932;28;20041;-78
2023/08/07 11:13:44;;;;;;;7.90;2.33;;;18.10;99.90;;;;;;5060032;28;20043;-78
2023/08/07 11:16:11;;;;;;;10.13;2.00;;;18.30;99.90;;;;;;5031538;28;20044;-78
2023/08/07 11:18:40;;;;;;;9.10;2.13;;;18.30;99.90;;;;;;5059637;28;20045;-78
2023/08/07 11:21:12;;;;;;;9.43;2.40;;;18.10;99.90;;;;;;5062412;28;20044;-77
2023/08/07 11:23:39;;;;;;;12.87;2.80;;;17.90;99.90;;;;;;5033288;28;20610;-77
2023/08/07 11:26:06;;;;;;;8.05;2.20;;;17.70;99.90;;;;;;5045931;28;20041;-77
2023/08/07 11:28:32;;;;;;;10.57;2.60;;;17.40;99.90;;;;;;5064111;28;20032;-77
2023/08/07 11:30:58;;;;;;;11.93;2.80;;;17.10;99.90;;;;;;5060723;28;20497;-78
2023/08/07 11:33:25;;;;;;;10.27;2.58;;;16.90;99.90;;;;;;5063734;28;20055;-78
2023/08/07 11:35:51;;;;;;;9.18;3.08;;;16.70;99.90;;;;;;5047801;28;20067;-77
2023/08/07 11:38:35;;;;;;;12.30;3.03;;;16.70;99.90;;;;;;5064631;28;20032;-78
2023/08/07 11:41:05;;;;;;;9.57;2.15;;;16.70;99.90;;;;;;5047418;28;20044;-78
2023/08/07 11:43:35;;;;;;;8.65;2.53;;;16.70;99.90;;;;;;5063304;28;20401;-77
2023/08/07 11:46:06;;;;;;;8.25;2.30;;;16.70;99.90;;;;;;5033536;28;20367;-78
2023/08/07 11:48:35;;;;;;;8.90;2.28;;;16.70;99.90;;;;;;5062437;28;20052;-77
2023/08/07 11:51:01;;;;;;;11.45;2.50;;;16.80;99.90;;;;;;5037689;28;20083;-78
2023/08/07 11:53:32;;;;;;;8.15;2.33;;;16.90;99.90;;;;;;5046059;28;20040;-78
2023/08/07 11:56:07;;;;;;;9.10;2.60;;;17.00;99.90;;;;;;5046723;28;20087;-78
2023/08/07 11:58:39;;;;;;;8.43;2.47;;;17.10;99.90;;;;;;5065307;28;20047;-77
2023/08/07 12:01:15;;;;;;;7.25;2.00;;;17.00;99.90;;;;;;5047357;28;20041;-78
2023/08/07 12:03:49;;;;;;;6.88;2.20;;;16.90;99.90;;;;;;5045908;28;20044;-78
2023/08/07 12:06:15;;;;;;;12.35;1.90;;;17.10;99.90;;;;;;5047811;28;20430;-77
2023/08/07 12:08:41;;;;;;;7.78;2.13;;;17.30;99.90;;;;;;5061995;28;20075;-77
2023/08/07 12:11:09;;;;;;;8.68;2.33;;;17.40;99.90;;;;;;5064801;28;20048;-78
2023/08/07 12:13:40;;;;;;;8.73;2.47;;;17.50;99.90;;;;;;5047350;28;20040;-78
2023/08/07 12:16:06;;;;;;;8.63;2.35;;;17.60;99.90;;;;;;5032797;28;20109;-78
2023/08/07 12:18:32;;;;;;;7.57;2.17;;;17.60;99.90;;;;;;5065090;28;20037;-78
2023/08/07 12:21:00;;;;;;;8.57;2.60;;;17.30;99.90;;;;;;5065249;28;20037;-78
2023/08/07 12:23:26;;;;;;;7.70;2.08;;;17.00;99.90;;;;;;5044089;28;20064;-78
2023/08/07 12:25:52;;;;;;;7.72;2.17;;;16.90;99.90;;;;;;5041709;28;20326;-78
2023/08/07 12:28:19;;;;;;;8.82;2.33;;;16.90;99.90;;;;;;5063756;28;20578;-78
2023/08/07 12:30:48;;;;;;;8.85;2.30;;;16.90;99.90;;;;;;5048866;28;20135;-77
2023/08/07 12:33:14;;;;;;;9.30;2.13;;;17.10;99.90;;;;;;5032190;28;20516;-78
2023/08/07 12:35:41;;;;;;;6.72;1.90;;;17.10;99.90;;;;;;5045241;28;20121;-78
2023/08/07 12:38:09;;;;;;;7.03;1.98;;;17.20;99.90;;;;;;5063291;28;20655;-78
2023/08/07 12:40:38;;;;;;;8.13;2.38;;;17.30;99.90;;;;;;5064619;28;20033;-78